Plunketts Creek, Pennsylvania
Current Conditions -  °F | °C
As of 9:54 PM on Saturday 25 Oct 2014 (Local Time) from KIPT Reporting Station
Overcast Overcast  
Wind Chill: 62°   Ceiling: 6000
Heat Index: 62°   Visibility: 10mi
Dew Point: 49°   Wind: 13mph
Humidity: 62%   Direction: 270°W
Pressure: 29.62"   Gusts: 23mph
Location:  41.246°N, 77.0167°W
Report Text: KIPT 260154Z 27011G20KT 10SM FEW046 BKN060 OVC085 17/09 A2962 RMK AO2 SLP030 T01670094
Loading
Personal Weather Stations






























Interactive Weather Map
Tropical Storm Tracking
New forecast layout! Learn more

10-Day Weather Forecast

Advertisements
Track Severe Weather on mobile